PWSweather.com
Personal Weather Stations
Station Observations
UXOLA
Alcoy, AlcoyES

AlcoyAlcoyES

Lat: 38.70299, Lon: -0.48184

Elevation: 1935

Station Type: PCE FWS-20,

http://www.fiestasalcoy.xyz

High Low Average
Temperature 56.1°F13.4°C 43.5°F6.4°C 52.5°F11.4°C
Dew Point 45.5°F7.5°C 25.2°F-3.8°C 36.2°F2.3°C
Winds 19.7 mph 31.7 kmh 2.2 mph 3.5 kmh 9.0 mph NW14.5 kmh NW
Wind Gusts 28.2 mph45.4 kmh 6.0 mph9.7 kmh 16.0 mph25.7 kmh
Humidity 80% 33% 55%
Pressure 29.41 in995.9 mb 29.24 in990.2 mb -
Precipitation 0.11 in2.8 mm - -
Hour Temp Dew Point Humidity Winds Wind Gusts Pressure Precip Precip Rate Daily Precip Total
12:00 AM 54.9°F12.7°C 39.5°F4.2°C 56% 6.9 mph WNW11.1 kmh WNW 11.4 mph18.3 kmh 29.43 in996.6 mb 0.00 in0.0 mm 0.00 in0.0 mm 0.00 in0.0 mm
12:15 AM 54.7°F12.6°C 39.3°F4.1°C 56% 3.1 mph NW5.0 kmh NW 8.3 mph13.4 kmh 29.44 in997.0 mb 0.00 in0.0 mm 0.00 in0.0 mm 0.00 in0.0 mm
12:30 AM 54.5°F12.5°C 39.6°F4.2°C 57% 3.1 mph NW5.0 kmh NW 9.8 mph15.8 kmh 29.44 in997.0 mb 0.00 in0.0 mm 0.00 in0.0 mm 0.00 in0.0 mm
12:45 AM 53.8°F12.1°C 38.9°F3.8°C 57% 2.2 mph NNW3.5 kmh NNW 6.0 mph9.7 kmh 29.43 in996.6 mb 0.00 in0.0 mm 0.00 in0.0 mm 0.00 in0.0 mm
01:00 AM 53.8°F12.1°C 39.4°F4.1°C 58% 5.4 mph WNW8.7 kmh WNW 8.3 mph13.4 kmh 29.41 in995.9 mb 0.00 in0.0 mm 0.00 in0.0 mm 0.00 in0.0 mm
01:15 AM 54.0°F12.2°C 39.5°F4.2°C 58% 3.1 mph WNW5.0 kmh WNW 6.9 mph11.1 kmh 29.41 in995.9 mb 0.00 in0.0 mm 0.00 in0.0 mm 0.00 in0.0 mm
01:30 AM 53.8°F12.1°C 39.4°F4.1°C 58% 3.8 mph NNW6.1 kmh NNW 6.0 mph9.7 kmh 29.40 in995.6 mb 0.00 in0.0 mm 0.00 in0.0 mm 0.00 in0.0 mm
01:45 AM 53.8°F12.1°C 39.4°F4.1°C 58% 2.2 mph NW3.5 kmh NW 8.3 mph13.4 kmh 29.39 in995.3 mb 0.00 in0.0 mm 0.00 in0.0 mm 0.00 in0.0 mm
02:00 AM 54.3°F12.4°C 39.4°F4.1°C 57% 3.8 mph NW6.1 kmh NW 9.2 mph14.8 kmh 29.39 in995.3 mb 0.00 in0.0 mm 0.00 in0.0 mm 0.00 in0.0 mm
02:15 AM 54.1°F12.3°C 39.3°F4.1°C 57% 7.6 mph WNW12.2 kmh WNW 13.0 mph20.9 kmh 29.39 in995.3 mb 0.00 in0.0 mm 0.00 in0.0 mm 0.00 in0.0 mm
02:30 AM 54.7°F12.6°C 39.3°F4.1°C 56% 7.6 mph WNW12.2 kmh WNW 13.0 mph20.9 kmh 29.38 in994.9 mb 0.00 in0.0 mm 0.00 in0.0 mm 0.00 in0.0 mm
02:45 AM 54.9°F12.7°C 39.5°F4.2°C 56% 9.2 mph NW14.8 kmh NW 12.1 mph19.5 kmh 29.36 in994.2 mb 0.00 in0.0 mm 0.00 in0.0 mm 0.00 in0.0 mm
03:00 AM 54.9°F12.7°C 39.9°F4.4°C 57% 8.3 mph W13.4 kmh W 12.1 mph19.5 kmh 29.37 in994.6 mb 0.00 in0.0 mm 0.00 in0.0 mm 0.00 in0.0 mm
03:15 AM 54.9°F12.7°C 39.9°F4.4°C 57% 6.0 mph NW9.7 kmh NW 11.4 mph18.3 kmh 29.37 in994.6 mb 0.00 in0.0 mm 0.00 in0.0 mm 0.00 in0.0 mm
03:30 AM 55.0°F12.8°C 39.2°F4.0°C 55% 8.3 mph NW13.4 kmh NW 13.0 mph20.9 kmh 29.36 in994.2 mb 0.00 in0.0 mm 0.00 in0.0 mm 0.00 in0.0 mm
03:45 AM 55.2°F12.9°C 38.4°F3.6°C 53% 15.2 mph NW24.5 kmh NW 17.4 mph28.0 kmh 29.34 in993.6 mb 0.00 in0.0 mm 0.00 in0.0 mm 0.00 in0.0 mm
04:00 AM 55.4°F13.0°C 38.1°F3.4°C 52% 9.2 mph WNW14.8 kmh WNW 13.6 mph21.9 kmh 29.33 in993.2 mb 0.00 in0.0 mm 0.00 in0.0 mm 0.00 in0.0 mm
04:15 AM 55.8°F13.2°C 37.9°F3.3°C 51% 12.1 mph NW19.5 kmh NW 16.8 mph27.0 kmh 29.32 in992.9 mb 0.00 in0.0 mm 0.00 in0.0 mm 0.00 in0.0 mm
04:30 AM 56.1°F13.4°C 38.3°F3.5°C 51% 6.0 mph WNW9.7 kmh WNW 15.9 mph25.6 kmh 29.31 in992.6 mb 0.00 in0.0 mm 0.00 in0.0 mm 0.00 in0.0 mm
04:45 AM 55.9°F13.3°C 38.1°F3.4°C 51% 7.6 mph WNW12.2 kmh WNW 14.5 mph23.3 kmh 29.31 in992.6 mb 0.00 in0.0 mm 0.00 in0.0 mm 0.00 in0.0 mm
05:00 AM 55.9°F13.3°C 38.1°F3.4°C 51% 6.9 mph WNW11.1 kmh WNW 11.4 mph18.3 kmh 29.30 in992.2 mb 0.00 in0.0 mm 0.00 in0.0 mm 0.00 in0.0 mm
05:15 AM 55.9°F13.3°C 38.1°F3.4°C 51% 12.1 mph NW19.5 kmh NW 19.7 mph31.7 kmh 29.29 in991.9 mb 0.00 in0.0 mm 0.00 in0.0 mm 0.00 in0.0 mm
05:30 AM 55.8°F13.2°C 38.4°F3.6°C 52% 10.7 mph NW17.2 kmh NW 15.2 mph24.5 kmh 29.29 in991.9 mb 0.00 in0.0 mm 0.00 in0.0 mm 0.00 in0.0 mm
05:45 AM 55.6°F13.1°C 38.7°F3.7°C 53% 11.4 mph NW18.3 kmh NW 19.7 mph31.7 kmh 29.29 in991.9 mb 0.00 in0.0 mm 0.00 in0.0 mm 0.00 in0.0 mm
06:00 AM 55.6°F13.1°C 38.7°F3.7°C 53% 12.1 mph NW19.5 kmh NW 15.2 mph24.5 kmh 29.28 in991.5 mb 0.00 in0.0 mm 0.00 in0.0 mm 0.00 in0.0 mm
06:15 AM 55.6°F13.1°C 38.7°F3.7°C 53% 6.0 mph NW9.7 kmh NW 15.2 mph24.5 kmh 29.27 in991.2 mb 0.00 in0.0 mm 0.00 in0.0 mm 0.00 in0.0 mm
06:30 AM 55.4°F13.0°C 39.0°F3.9°C 54% 9.2 mph NW14.8 kmh NW 13.0 mph20.9 kmh 29.27 in991.2 mb 0.00 in0.0 mm 0.00 in0.0 mm 0.00 in0.0 mm
06:45 AM 55.2°F12.9°C 38.9°F3.8°C 54% 6.0 mph NW9.7 kmh NW 15.2 mph24.5 kmh 29.26 in990.9 mb 0.00 in0.0 mm 0.00 in0.0 mm 0.00 in0.0 mm
07:00 AM 55.2°F12.9°C 39.3°F4.1°C 55% 7.6 mph NW12.2 kmh NW 15.9 mph25.6 kmh 29.26 in990.9 mb 0.00 in0.0 mm 0.00 in0.0 mm 0.00 in0.0 mm
07:15 AM 55.2°F12.9°C 39.3°F4.1°C 55% 7.6 mph NW12.2 kmh NW 14.5 mph23.3 kmh 29.26 in990.9 mb 0.00 in0.0 mm 0.00 in0.0 mm 0.00 in0.0 mm
07:30 AM 54.9°F12.7°C 39.9°F4.4°C 57% 5.4 mph NW8.7 kmh NW 15.2 mph24.5 kmh 29.25 in990.5 mb 0.00 in0.0 mm 0.00 in0.0 mm 0.00 in0.0 mm
07:45 AM 54.7°F12.6°C 40.2°F4.6°C 58% 7.6 mph NW12.2 kmh NW 14.5 mph23.3 kmh 29.25 in990.5 mb 0.00 in0.0 mm 0.00 in0.0 mm 0.00 in0.0 mm
08:00 AM 54.7°F12.6°C 41.1°F5.1°C 60% 7.6 mph NW12.2 kmh NW 12.1 mph19.5 kmh 29.25 in990.5 mb 0.00 in0.0 mm 0.00 in0.0 mm 0.00 in0.0 mm
08:15 AM 54.3°F12.4°C 40.7°F4.8°C 60% 8.3 mph NW13.4 kmh NW 13.0 mph20.9 kmh 29.26 in990.9 mb 0.00 in0.0 mm 0.00 in0.0 mm 0.00 in0.0 mm
08:30 AM 54.1°F12.3°C 41.0°F5.0°C 61% 6.0 mph NW9.7 kmh NW 11.4 mph18.3 kmh 29.27 in991.2 mb 0.00 in0.0 mm 0.00 in0.0 mm 0.00 in0.0 mm
08:45 AM 53.1°F11.7°C 42.4°F5.8°C 67% 8.3 mph NW13.4 kmh NW 13.6 mph21.9 kmh 29.29 in991.9 mb 0.00 in0.0 mm 0.00 in0.0 mm 0.00 in0.0 mm
09:00 AM 51.6°F10.9°C 43.6°F6.4°C 74% 3.8 mph NW6.1 kmh NW 13.6 mph21.9 kmh 29.30 in992.2 mb 0.05 in1.3 mm 0.07 in1.8 mm 0.05 in1.3 mm
09:15 AM 51.1°F10.6°C 44.1°F6.7°C 77% 5.4 mph NW8.7 kmh NW 9.8 mph15.8 kmh 29.29 in991.9 mb 0.05 in1.3 mm 0.00 in0.0 mm 0.05 in1.3 mm
09:30 AM 50.9°F10.5°C 44.6°F7.0°C 79% 6.0 mph WNW9.7 kmh WNW 11.4 mph18.3 kmh 29.30 in992.2 mb 0.06 in1.5 mm 0.04 in1.0 mm 0.06 in1.5 mm
09:45 AM 50.9°F10.5°C 45.0°F7.2°C 80% 7.6 mph WNW12.2 kmh WNW 9.2 mph14.8 kmh 29.29 in991.9 mb 0.07 in1.8 mm 0.04 in1.0 mm 0.08 in2.0 mm
10:00 AM 51.4°F10.8°C 45.5°F7.5°C 80% 9.2 mph WNW14.8 kmh WNW 20.6 mph33.2 kmh 29.29 in991.9 mb 0.04 in1.0 mm 0.00 in0.0 mm 0.08 in2.0 mm
10:15 AM 51.6°F10.9°C 45.0°F7.2°C 78% 6.9 mph NW11.1 kmh NW 13.6 mph21.9 kmh 29.27 in991.2 mb 0.04 in1.0 mm 0.00 in0.0 mm 0.08 in2.0 mm
10:30 AM 52.3°F11.3°C 45.4°F7.4°C 77% 4.5 mph NW7.2 kmh NW 12.1 mph19.5 kmh 29.27 in991.2 mb 0.02 in0.5 mm 0.00 in0.0 mm 0.08 in2.0 mm
10:45 AM 53.6°F12.0°C 44.4°F6.9°C 71% 8.3 mph WNW13.4 kmh WNW 16.8 mph27.0 kmh 29.27 in991.2 mb 0.00 in0.0 mm 0.00 in0.0 mm 0.08 in2.0 mm
11:00 AM 54.1°F12.3°C 43.0°F6.1°C 66% 12.1 mph WNW19.5 kmh WNW 18.3 mph29.5 kmh 29.27 in991.2 mb 0.00 in0.0 mm 0.00 in0.0 mm 0.08 in2.0 mm
11:15 AM 54.9°F12.7°C 43.7°F6.5°C 66% 13.0 mph NW20.9 kmh NW 15.9 mph25.6 kmh 29.28 in991.5 mb 0.00 in0.0 mm 0.00 in0.0 mm 0.08 in2.0 mm
11:30 AM 54.7°F12.6°C 43.2°F6.2°C 65% 6.9 mph W11.1 kmh W 15.2 mph24.5 kmh 29.29 in991.9 mb 0.00 in0.0 mm 0.00 in0.0 mm 0.08 in2.0 mm
11:45 AM 54.9°F12.7°C 43.7°F6.5°C 66% 6.9 mph NW11.1 kmh NW 15.9 mph25.6 kmh 29.28 in991.5 mb 0.00 in0.0 mm 0.00 in0.0 mm 0.08 in2.0 mm
12:00 PM 54.1°F12.3°C 43.4°F6.3°C 67% 6.9 mph WNW11.1 kmh WNW 10.7 mph17.2 kmh 29.30 in992.2 mb 0.00 in0.0 mm 0.00 in0.0 mm 0.08 in2.0 mm
12:15 PM 52.0°F11.1°C 43.6°F6.4°C 73% 6.9 mph WNW11.1 kmh WNW 23.5 mph37.8 kmh 29.29 in991.9 mb 0.01 in0.3 mm 0.04 in1.0 mm 0.09 in2.3 mm
12:30 PM 52.3°F11.3°C 44.3°F6.8°C 74% 6.9 mph W11.1 kmh W 13.0 mph20.9 kmh 29.29 in991.9 mb 0.01 in0.3 mm 0.00 in0.0 mm 0.09 in2.3 mm
12:45 PM 52.7°F11.5°C 43.2°F6.2°C 70% 8.3 mph NW13.4 kmh NW 15.9 mph25.6 kmh 29.29 in991.9 mb 0.01 in0.3 mm 0.00 in0.0 mm 0.09 in2.3 mm
01:00 PM 52.9°F11.6°C 41.8°F5.4°C 66% 11.4 mph NW18.3 kmh NW 17.4 mph28.0 kmh 29.29 in991.9 mb 0.01 in0.3 mm 0.00 in0.0 mm 0.09 in2.3 mm
01:15 PM 53.6°F12.0°C 40.1°F4.5°C 60% 9.2 mph NW14.8 kmh NW 17.4 mph28.0 kmh 29.27 in991.2 mb 0.00 in0.0 mm 0.00 in0.0 mm 0.09 in2.3 mm
01:30 PM 54.5°F12.5°C 38.7°F3.7°C 55% 13.0 mph WNW20.9 kmh WNW 19.0 mph30.6 kmh 29.26 in990.9 mb 0.00 in0.0 mm 0.00 in0.0 mm 0.09 in2.3 mm
01:45 PM 55.8°F13.2°C 35.3°F1.8°C 46% 10.7 mph WNW17.2 kmh WNW 18.3 mph29.5 kmh 29.25 in990.5 mb 0.00 in0.0 mm 0.00 in0.0 mm 0.09 in2.3 mm
02:00 PM 55.8°F13.2°C 31.2°F-0.4°C 39% 13.0 mph WNW20.9 kmh WNW 26.6 mph42.8 kmh 29.25 in990.5 mb 0.01 in0.3 mm 0.01 in0.3 mm 0.11 in2.8 mm
02:15 PM 55.4°F13.0°C 31.5°F-0.3°C 40% 7.6 mph NW12.2 kmh NW 21.3 mph34.3 kmh 29.25 in990.5 mb 0.01 in0.3 mm 0.00 in0.0 mm 0.11 in2.8 mm
02:30 PM 55.6°F13.1°C 32.3°F0.2°C 41% 11.4 mph NW18.3 kmh NW 22.1 mph35.6 kmh 29.26 in990.9 mb 0.01 in0.3 mm 0.00 in0.0 mm 0.11 in2.8 mm
02:45 PM 55.9°F13.3°C 32.6°F0.3°C 41% 3.1 mph WSW5.0 kmh WSW 15.9 mph25.6 kmh 29.25 in990.5 mb 0.01 in0.3 mm 0.00 in0.0 mm 0.11 in2.8 mm
03:00 PM 55.4°F13.0°C 31.5°F-0.3°C 40% 9.8 mph NW15.8 kmh NW 14.5 mph23.3 kmh 29.26 in990.9 mb 0.00 in0.0 mm 0.00 in0.0 mm 0.11 in2.8 mm
03:15 PM 54.5°F12.5°C 30.7°F-0.7°C 40% 9.2 mph W14.8 kmh W 15.9 mph25.6 kmh 29.26 in990.9 mb 0.00 in0.0 mm 0.00 in0.0 mm 0.11 in2.8 mm
03:30 PM 55.4°F13.0°C 29.6°F-1.3°C 37% 8.3 mph W13.4 kmh W 18.3 mph29.5 kmh 29.26 in990.9 mb 0.00 in0.0 mm 0.00 in0.0 mm 0.11 in2.8 mm
03:45 PM 55.2°F12.9°C 30.7°F-0.7°C 39% 8.3 mph W13.4 kmh W 14.5 mph23.3 kmh 29.25 in990.5 mb 0.00 in0.0 mm 0.00 in0.0 mm 0.11 in2.8 mm
04:00 PM 54.9°F12.7°C 29.1°F-1.6°C 37% 2.2 mph W3.5 kmh W 14.5 mph23.3 kmh 29.25 in990.5 mb 0.00 in0.0 mm 0.00 in0.0 mm 0.11 in2.8 mm
04:15 PM 54.9°F12.7°C 28.4°F-2.0°C 36% 16.8 mph WNW27.0 kmh WNW 28.2 mph45.4 kmh 29.25 in990.5 mb 0.00 in0.0 mm 0.00 in0.0 mm 0.11 in2.8 mm
04:30 PM 54.7°F12.6°C 28.3°F-2.1°C 36% 15.2 mph W24.5 kmh W 26.6 mph42.8 kmh 29.26 in990.9 mb 0.00 in0.0 mm 0.00 in0.0 mm 0.11 in2.8 mm
04:45 PM 54.7°F12.6°C 26.9°F-2.8°C 34% 5.4 mph WNW8.7 kmh WNW 17.4 mph28.0 kmh 29.26 in990.9 mb 0.00 in0.0 mm 0.00 in0.0 mm 0.11 in2.8 mm
05:00 PM 54.1°F12.3°C 27.1°F-2.7°C 35% 6.9 mph NW11.1 kmh NW 13.0 mph20.9 kmh 29.25 in990.5 mb 0.00 in0.0 mm 0.00 in0.0 mm 0.11 in2.8 mm
05:15 PM 54.0°F12.2°C 25.5°F-3.6°C 33% 8.3 mph NW13.4 kmh NW 21.3 mph34.3 kmh 29.24 in990.2 mb 0.00 in0.0 mm 0.00 in0.0 mm 0.11 in2.8 mm
05:30 PM 53.6°F12.0°C 25.2°F-3.8°C 33% 9.2 mph NW14.8 kmh NW 18.3 mph29.5 kmh 29.24 in990.2 mb 0.00 in0.0 mm 0.00 in0.0 mm 0.11 in2.8 mm
05:45 PM 52.7°F11.5°C 27.8°F-2.3°C 38% 6.9 mph NW11.1 kmh NW 10.7 mph17.2 kmh 29.24 in990.2 mb 0.00 in0.0 mm 0.00 in0.0 mm 0.11 in2.8 mm
06:00 PM 52.0°F11.1°C 28.4°F-2.0°C 40% 6.9 mph NW11.1 kmh NW 11.4 mph18.3 kmh 29.25 in990.5 mb 0.00 in0.0 mm 0.00 in0.0 mm 0.11 in2.8 mm
06:15 PM 51.8°F11.0°C 28.3°F-2.1°C 40% 8.3 mph NW13.4 kmh NW 13.6 mph21.9 kmh 29.26 in990.9 mb 0.00 in0.0 mm 0.00 in0.0 mm 0.11 in2.8 mm
06:30 PM 51.3°F10.7°C 29.0°F-1.7°C 42% 10.7 mph W17.2 kmh W 15.9 mph25.6 kmh 29.26 in990.9 mb 0.00 in0.0 mm 0.00 in0.0 mm 0.11 in2.8 mm
06:45 PM 50.7°F10.4°C 29.6°F-1.3°C 44% 11.4 mph WNW18.3 kmh WNW 17.4 mph28.0 kmh 29.25 in990.5 mb 0.00 in0.0 mm 0.00 in0.0 mm 0.11 in2.8 mm
07:00 PM 50.2°F10.1°C 29.1°F-1.6°C 44% 9.8 mph NW15.8 kmh NW 20.6 mph33.2 kmh 29.24 in990.2 mb 0.00 in0.0 mm 0.00 in0.0 mm 0.11 in2.8 mm
07:15 PM 49.8°F9.9°C 29.9°F-1.2°C 46% 9.8 mph NW15.8 kmh NW 14.5 mph23.3 kmh 29.25 in990.5 mb 0.00 in0.0 mm 0.00 in0.0 mm 0.11 in2.8 mm
07:30 PM 49.5°F9.7°C 30.1°F-1.1°C 47% 10.7 mph NW17.2 kmh NW 19.7 mph31.7 kmh 29.25 in990.5 mb 0.00 in0.0 mm 0.00 in0.0 mm 0.11 in2.8 mm
07:45 PM 49.1°F9.5°C 30.3°F-0.9°C 48% 9.8 mph W15.8 kmh W 16.8 mph27.0 kmh 29.26 in990.9 mb 0.00 in0.0 mm 0.00 in0.0 mm 0.11 in2.8 mm
08:00 PM 48.7°F9.3°C 30.9°F-0.6°C 50% 6.0 mph NW9.7 kmh NW 14.5 mph23.3 kmh 29.26 in990.9 mb 0.00 in0.0 mm 0.00 in0.0 mm 0.11 in2.8 mm
08:15 PM 48.6°F9.2°C 31.3°F-0.4°C 51% 9.2 mph NW14.8 kmh NW 13.6 mph21.9 kmh 29.27 in991.2 mb 0.00 in0.0 mm 0.00 in0.0 mm 0.11 in2.8 mm
08:30 PM 48.4°F9.1°C 32.5°F0.3°C 54% 19.7 mph NW31.7 kmh NW 24.4 mph39.3 kmh 29.28 in991.5 mb 0.00 in0.0 mm 0.00 in0.0 mm 0.11 in2.8 mm
08:45 PM 46.6°F8.1°C 34.7°F1.5°C 63% 17.4 mph WNW28.0 kmh WNW 22.1 mph35.6 kmh 29.27 in991.2 mb 0.00 in0.0 mm 0.00 in0.0 mm 0.11 in2.8 mm
09:00 PM 45.5°F7.5°C 34.8°F1.6°C 66% 14.5 mph W23.3 kmh W 22.8 mph36.7 kmh 29.27 in991.2 mb 0.00 in0.0 mm 0.00 in0.0 mm 0.11 in2.8 mm
09:15 PM 45.0°F7.2°C 34.3°F1.3°C 66% 13.6 mph NW21.9 kmh NW 20.6 mph33.2 kmh 29.27 in991.2 mb 0.00 in0.0 mm 0.00 in0.0 mm 0.11 in2.8 mm
09:30 PM 45.0°F7.2°C 33.5°F0.8°C 64% 10.7 mph WNW17.2 kmh WNW 22.1 mph35.6 kmh 29.27 in991.2 mb 0.00 in0.0 mm 0.00 in0.0 mm 0.11 in2.8 mm
09:45 PM 45.1°F7.3°C 32.5°F0.3°C 61% 8.3 mph NW13.4 kmh NW 23.5 mph37.8 kmh 29.28 in991.5 mb 0.00 in0.0 mm 0.00 in0.0 mm 0.11 in2.8 mm
10:00 PM 45.1°F7.3°C 32.1°F0.1°C 60% 9.8 mph NW15.8 kmh NW 18.3 mph29.5 kmh 29.29 in991.9 mb 0.00 in0.0 mm 0.00 in0.0 mm 0.11 in2.8 mm
10:15 PM 44.8°F7.1°C 31.8°F-0.1°C 60% 13.0 mph W20.9 kmh W 21.3 mph34.3 kmh 29.28 in991.5 mb 0.00 in0.0 mm 0.00 in0.0 mm 0.11 in2.8 mm
10:30 PM 44.6°F7.0°C 30.7°F-0.7°C 58% 8.3 mph W13.4 kmh W 16.8 mph27.0 kmh 29.29 in991.9 mb 0.00 in0.0 mm 0.00 in0.0 mm 0.11 in2.8 mm
10:45 PM 44.4°F6.9°C 29.7°F-1.3°C 56% 3.8 mph NW6.1 kmh NW 15.9 mph25.6 kmh 29.29 in991.9 mb 0.00 in0.0 mm 0.00 in0.0 mm 0.11 in2.8 mm
11:00 PM 44.2°F6.8°C 29.1°F-1.6°C 55% 4.5 mph WNW7.2 kmh WNW 14.5 mph23.3 kmh 29.29 in991.9 mb 0.00 in0.0 mm 0.00 in0.0 mm 0.11 in2.8 mm
11:15 PM 44.1°F6.7°C 28.9°F-1.7°C 55% 6.9 mph W11.1 kmh W 13.6 mph21.9 kmh 29.30 in992.2 mb 0.00 in0.0 mm 0.00 in0.0 mm 0.11 in2.8 mm
11:30 PM 43.9°F6.6°C 30.9°F-0.6°C 60% 9.2 mph WSW14.8 kmh WSW 11.4 mph18.3 kmh 29.31 in992.6 mb 0.00 in0.0 mm 0.00 in0.0 mm 0.11 in2.8 mm
11:45 PM 43.5°F6.4°C 30.6°F-0.8°C 60% 5.4 mph NW8.7 kmh NW 9.8 mph15.8 kmh 29.32 in992.9 mb 0.00 in0.0 mm 0.00 in0.0 mm 0.11 in2.8 mm